sensor_id;sensor_type;location;lat;lon;timestamp;pressure;altitude;pressure_sealevel;temperature;humidity
14383;BME280;7275;50.328;8.720;2023-05-12T00:00:54;99482.75;;;19.39;52.33
14383;BME280;7275;50.328;8.720;2023-05-12T00:03:22;99483.72;;;19.38;52.34
14383;BME280;7275;50.328;8.720;2023-05-12T00:05:50;99489.94;;;19.38;52.28
14383;BME280;7275;50.328;8.720;2023-05-12T00:08:18;99484.56;;;19.38;52.24
14383;BME280;7275;50.328;8.720;2023-05-12T00:10:47;99476.44;;;19.40;52.31
14383;BME280;7275;50.328;8.720;2023-05-12T00:13:14;99478.25;;;19.39;52.21
14383;BME280;7275;50.328;8.720;2023-05-12T00:15:42;99487.25;;;19.38;52.38
14383;BME280;7275;50.328;8.720;2023-05-12T00:18:09;99479.19;;;19.38;52.40
14383;BME280;7275;50.328;8.720;2023-05-12T00:20:37;99490.06;;;19.37;52.30
14383;BME280;7275;50.328;8.720;2023-05-12T00:23:04;99483.09;;;19.34;52.33
14383;BME280;7275;50.328;8.720;2023-05-12T00:25:32;99490.19;;;19.35;52.44
14383;BME280;7275;50.328;8.720;2023-05-12T00:28:01;99477.72;;;19.34;52.33
14383;BME280;7275;50.328;8.720;2023-05-12T00:30:28;99476.00;;;19.33;52.45
14383;BME280;7275;50.328;8.720;2023-05-12T00:32:56;99484.03;;;19.33;52.32
14383;BME280;7275;50.328;8.720;2023-05-12T00:35:24;99482.44;;;19.31;52.33
14383;BME280;7275;50.328;8.720;2023-05-12T00:37:51;99477.94;;;19.31;52.43
14383;BME280;7275;50.328;8.720;2023-05-12T00:40:19;99478.03;;;19.30;52.45
14383;BME280;7275;50.328;8.720;2023-05-12T00:42:47;99485.25;;;19.29;52.39
14383;BME280;7275;50.328;8.720;2023-05-12T00:45:16;99476.34;;;19.29;52.50
14383;BME280;7275;50.328;8.720;2023-05-12T00:47:44;99476.34;;;19.29;52.31
14383;BME280;7275;50.328;8.720;2023-05-12T00:50:12;99472.94;;;19.27;52.36
14383;BME280;7275;50.328;8.720;2023-05-12T00:52:39;99472.94;;;19.27;52.35
14383;BME280;7275;50.328;8.720;2023-05-12T00:55:08;99474.88;;;19.25;52.48
14383;BME280;7275;50.328;8.720;2023-05-12T00:57:36;99474.13;;;19.23;52.37
14383;BME280;7275;50.328;8.720;2023-05-12T01:00:04;99471.81;;;19.18;52.51
14383;BME280;7275;50.328;8.720;2023-05-12T01:02:34;99480.31;;;19.12;52.46
14383;BME280;7275;50.328;8.720;2023-05-12T01:05:02;99472.00;;;19.04;52.39
14383;BME280;7275;50.328;8.720;2023-05-12T01:07:31;99476.22;;;18.95;52.72
14383;BME280;7275;50.328;8.720;2023-05-12T01:09:59;99471.34;;;18.89;52.49
14383;BME280;7275;50.328;8.720;2023-05-12T01:12:27;99474.34;;;18.85;52.77
14383;BME280;7275;50.328;8.720;2023-05-12T01:14:55;99476.41;;;18.81;52.77
14383;BME280;7275;50.328;8.720;2023-05-12T01:17:27;99484.53;;;18.80;52.94
14383;BME280;7275;50.328;8.720;2023-05-12T01:19:59;99486.47;;;18.78;52.99
14383;BME280;7275;50.328;8.720;2023-05-12T01:22:28;99484.78;;;18.77;52.77
14383;BME280;7275;50.328;8.720;2023-05-12T01:24:59;99491.22;;;18.74;52.90
14383;BME280;7275;50.328;8.720;2023-05-12T01:27:29;99485.00;;;18.74;52.97
14383;BME280;7275;50.328;8.720;2023-05-12T01:30:00;99492.16;;;18.73;52.89
14383;BME280;7275;50.328;8.720;2023-05-12T01:32:27;99492.53;;;18.69;52.96
14383;BME280;7275;50.328;8.720;2023-05-12T01:34:56;99489.19;;;18.65;52.90
14383;BME280;7275;50.328;8.720;2023-05-12T01:37:23;99490.31;;;18.63;53.03
14383;BME280;7275;50.328;8.720;2023-05-12T01:39:52;99490.53;;;18.60;53.05
14383;BME280;7275;50.328;8.720;2023-05-12T01:42:19;99496.09;;;18.57;53.08
14383;BME280;7275;50.328;8.720;2023-05-12T01:44:48;99493.66;;;18.54;53.07
14383;BME280;7275;50.328;8.720;2023-05-12T01:47:16;99492.16;;;18.50;53.15
14383;BME280;7275;50.328;8.720;2023-05-12T01:49:43;99495.06;;;18.47;53.15
14383;BME280;7275;50.328;8.720;2023-05-12T01:52:11;99500.41;;;18.47;53.12
14383;BME280;7275;50.328;8.720;2023-05-12T01:54:39;99496.03;;;18.46;53.18
14383;BME280;7275;50.328;8.720;2023-05-12T01:57:06;99506.00;;;18.44;53.09
14383;BME280;7275;50.328;8.720;2023-05-12T01:59:34;99502.53;;;18.42;53.08
14383;BME280;7275;50.328;8.720;2023-05-12T02:02:03;99500.94;;;18.39;53.17
14383;BME280;7275;50.328;8.720;2023-05-12T02:04:30;99505.56;;;18.37;53.30
14383;BME280;7275;50.328;8.720;2023-05-12T02:06:58;99510.16;;;18.35;53.28
14383;BME280;7275;50.328;8.720;2023-05-12T02:09:25;99513.78;;;18.34;53.34
14383;BME280;7275;50.328;8.720;2023-05-12T02:11:53;99520.31;;;18.30;53.25
14383;BME280;7275;50.328;8.720;2023-05-12T02:14:20;99517.03;;;18.26;53.50
14383;BME280;7275;50.328;8.720;2023-05-12T02:16:48;99520.75;;;18.24;53.47
14383;BME280;7275;50.328;8.720;2023-05-12T02:19:19;99529.88;;;18.21;53.33
14383;BME280;7275;50.328;8.720;2023-05-12T02:21:47;99528.16;;;18.20;53.66
14383;BME280;7275;50.328;8.720;2023-05-12T02:24:14;99530.84;;;18.20;53.53
14383;BME280;7275;50.328;8.720;2023-05-12T02:26:42;99521.84;;;18.21;53.69
14383;BME280;7275;50.328;8.720;2023-05-12T02:29:10;99533.19;;;18.25;53.88
14383;BME280;7275;50.328;8.720;2023-05-12T02:31:37;99537.56;;;18.26;53.66
14383;BME280;7275;50.328;8.720;2023-05-12T02:34:05;99525.91;;;18.27;53.65
14383;BME280;7275;50.328;8.720;2023-05-12T02:36:34;99538.19;;;18.29;53.78
14383;BME280;7275;50.328;8.720;2023-05-12T02:39:01;99538.09;;;18.31;53.96
14383;BME280;7275;50.328;8.720;2023-05-12T02:41:29;99538.63;;;18.36;53.67
14383;BME280;7275;50.328;8.720;2023-05-12T02:43:56;99533.06;;;18.39;53.71
14383;BME280;7275;50.328;8.720;2023-05-12T02:46:24;99535.50;;;18.42;53.66
14383;BME280;7275;50.328;8.720;2023-05-12T02:48:51;99536.06;;;18.47;53.75
14383;BME280;7275;50.328;8.720;2023-05-12T02:51:19;99534.13;;;18.49;53.71
14383;BME280;7275;50.328;8.720;2023-05-12T02:53:48;99537.56;;;18.51;53.72
14383;BME280;7275;50.328;8.720;2023-05-12T02:56:16;99534.56;;;18.56;53.80
14383;BME280;7275;50.328;8.720;2023-05-12T02:58:44;99542.25;;;18.60;53.78
14383;BME280;7275;50.328;8.720;2023-05-12T03:01:11;99540.19;;;18.64;53.57
14383;BME280;7275;50.328;8.720;2023-05-12T03:03:39;99546.91;;;18.69;53.53
14383;BME280;7275;50.328;8.720;2023-05-12T03:06:07;99541.25;;;18.74;53.57
14383;BME280;7275;50.328;8.720;2023-05-12T03:08:35;99543.59;;;18.78;53.42
14383;BME280;7275;50.328;8.720;2023-05-12T03:11:04;99542.25;;;18.84;53.44
14383;BME280;7275;50.328;8.720;2023-05-12T03:13:32;99544.53;;;18.90;53.43
14383;BME280;7275;50.328;8.720;2023-05-12T03:15:59;99543.31;;;18.94;53.37
14383;BME280;7275;50.328;8.720;2023-05-12T03:18:27;99537.59;;;18.98;53.17
14383;BME280;7275;50.328;8.720;2023-05-12T03:20:55;99543.59;;;19.02;53.15
14383;BME280;7275;50.328;8.720;2023-05-12T03:23:22;99537.19;;;19.04;53.04
14383;BME280;7275;50.328;8.720;2023-05-12T03:25:50;99542.28;;;19.07;53.07
14383;BME280;7275;50.328;8.720;2023-05-12T03:28:19;99534.03;;;19.10;52.97
14383;BME280;7275;50.328;8.720;2023-05-12T03:30:48;99527.81;;;19.10;52.96
14383;BME280;7275;50.328;8.720;2023-05-12T03:33:15;99537.53;;;19.11;52.97
14383;BME280;7275;50.328;8.720;2023-05-12T03:35:43;99534.78;;;19.12;52.87
14383;BME280;7275;50.328;8.720;2023-05-12T03:38:10;99538.28;;;19.13;52.97
14383;BME280;7275;50.328;8.720;2023-05-12T03:40:38;99542.69;;;19.14;52.88
14383;BME280;7275;50.328;8.720;2023-05-12T03:43:06;99538.19;;;19.14;52.87
14383;BME280;7275;50.328;8.720;2023-05-12T03:45:34;99543.44;;;19.16;52.94
14383;BME280;7275;50.328;8.720;2023-05-12T03:48:02;99541.63;;;19.17;52.88
14383;BME280;7275;50.328;8.720;2023-05-12T03:50:30;99552.22;;;19.18;52.97
14383;BME280;7275;50.328;8.720;2023-05-12T03:52:57;99551.47;;;19.16;52.79
14383;BME280;7275;50.328;8.720;2023-05-12T03:55:25;99548.78;;;19.16;52.80
14383;BME280;7275;50.328;8.720;2023-05-12T03:57:52;99547.94;;;19.15;52.79
14383;BME280;7275;50.328;8.720;2023-05-12T04:00:20;99545.38;;;19.14;52.83
14383;BME280;7275;50.328;8.720;2023-05-12T04:02:49;99543.66;;;19.13;52.86
14383;BME280;7275;50.328;8.720;2023-05-12T04:05:17;99545.38;;;19.14;52.90
14383;BME280;7275;50.328;8.720;2023-05-12T04:07:44;99547.19;;;19.13;52.84
14383;BME280;7275;50.328;8.720;2023-05-12T04:10:12;99551.47;;;19.16;52.73
14383;BME280;7275;50.328;8.720;2023-05-12T04:12:39;99555.00;;;19.17;52.86
14383;BME280;7275;50.328;8.720;2023-05-12T04:15:08;99555.75;;;19.19;52.65
14383;BME280;7275;50.328;8.720;2023-05-12T04:17:35;99555.75;;;19.19;52.68
14383;BME280;7275;50.328;8.720;2023-05-12T04:20:06;99561.00;;;19.20;52.77
14383;BME280;7275;50.328;8.720;2023-05-12T04:22:34;99560.88;;;19.22;52.76
14383;BME280;7275;50.328;8.720;2023-05-12T04:25:01;99560.03;;;19.21;52.68
14383;BME280;7275;50.328;8.720;2023-05-12T04:27:29;99559.03;;;19.22;52.79
14383;BME280;7275;50.328;8.720;2023-05-12T04:29:56;99566.97;;;19.24;52.73
14383;BME280;7275;50.328;8.720;2023-05-12T04:32:24;99569.56;;;19.25;52.70
14383;BME280;7275;50.328;8.720;2023-05-12T04:34:52;99570.38;;;19.26;52.67
14383;BME280;7275;50.328;8.720;2023-05-12T04:37:22;99573.06;;;19.26;52.71
14383;BME280;7275;50.328;8.720;2023-05-12T04:39:50;99573.81;;;19.28;52.79
14383;BME280;7275;50.328;8.720;2023-05-12T04:42:17;99578.22;;;19.29;52.77
14383;BME280;7275;50.328;8.720;2023-05-12T04:44:45;99570.91;;;19.31;52.89
14383;BME280;7275;50.328;8.720;2023-05-12T04:47:12;99571.66;;;19.33;52.72
14383;BME280;7275;50.328;8.720;2023-05-12T04:49:40;99571.56;;;19.34;52.68
14383;BME280;7275;50.328;8.720;2023-05-12T04:52:07;99579.50;;;19.36;52.79
14383;BME280;7275;50.328;8.720;2023-05-12T04:54:36;99575.97;;;19.35;52.79
14383;BME280;7275;50.328;8.720;2023-05-12T04:57:04;99584.00;;;19.35;52.76
14383;BME280;7275;50.328;8.720;2023-05-12T04:59:32;99596.63;;;19.33;52.68
14383;BME280;7275;50.328;8.720;2023-05-12T05:01:59;99594.03;;;19.32;52.72
14383;BME280;7275;50.328;8.720;2023-05-12T05:04:27;99601.13;;;19.33;52.88
14383;BME280;7275;50.328;8.720;2023-05-12T05:06:54;99597.72;;;19.31;52.84
14383;BME280;7275;50.328;8.720;2023-05-12T05:09:22;99602.34;;;19.29;52.67
14383;BME280;7275;50.328;8.720;2023-05-12T05:11:51;99602.47;;;19.27;52.80
14383;BME280;7275;50.328;8.720;2023-05-12T05:14:18;99604.28;;;19.27;52.83
14383;BME280;7275;50.328;8.720;2023-05-12T05:16:46;99610.59;;;19.26;52.91
14383;BME280;7275;50.328;8.720;2023-05-12T05:19:14;99613.19;;;19.27;52.90
14383;BME280;7275;50.328;8.720;2023-05-12T05:21:50;99616.81;;;19.26;52.86
14383;BME280;7275;50.328;8.720;2023-05-12T05:24:18;99612.44;;;19.25;52.83
14383;BME280;7275;50.328;8.720;2023-05-12T05:26:46;99622.28;;;19.25;52.99
14383;BME280;7275;50.328;8.720;2023-05-12T05:29:15;99621.22;;;19.27;52.98
14383;BME280;7275;50.328;8.720;2023-05-12T05:31:42;99618.41;;;19.29;52.85
14383;BME280;7275;50.328;8.720;2023-05-12T05:34:10;99621.97;;;19.29;52.89
14383;BME280;7275;50.328;8.720;2023-05-12T05:36:38;99625.38;;;19.31;53.03
14383;BME280;7275;50.328;8.720;2023-05-12T05:39:05;99626.22;;;19.32;52.92
14383;BME280;7275;50.328;8.720;2023-05-12T05:41:35;99633.22;;;19.34;53.00
14383;BME280;7275;50.328;8.720;2023-05-12T05:44:03;99629.47;;;19.37;52.88
14383;BME280;7275;50.328;8.720;2023-05-12T05:46:32;99625.91;;;19.36;52.87
14383;BME280;7275;50.328;8.720;2023-05-12T05:48:59;99631.19;;;19.38;52.86
14383;BME280;7275;50.328;8.720;2023-05-12T05:51:27;99624.84;;;19.39;52.89
14383;BME280;7275;50.328;8.720;2023-05-12T05:53:54;99638.03;;;19.42;52.78
14383;BME280;7275;50.328;8.720;2023-05-12T05:56:22;99632.66;;;19.42;53.05
14383;BME280;7275;50.328;8.720;2023-05-12T05:58:50;99640.59;;;19.43;52.99
14383;BME280;7275;50.328;8.720;2023-05-12T06:01:17;99631.47;;;19.46;52.91
14383;BME280;7275;50.328;8.720;2023-05-12T06:03:46;99632.94;;;19.50;53.12
14383;BME280;7275;50.328;8.720;2023-05-12T06:06:14;99647.84;;;19.54;52.91
14383;BME280;7275;50.328;8.720;2023-05-12T06:08:41;99652.84;;;19.58;52.98
14383;BME280;7275;50.328;8.720;2023-05-12T06:11:09;99650.91;;;19.60;52.92
14383;BME280;7275;50.328;8.720;2023-05-12T06:13:37;99649.84;;;19.63;52.92
14383;BME280;7275;50.328;8.720;2023-05-12T06:16:05;99655.56;;;19.69;52.95
14383;BME280;7275;50.328;8.720;2023-05-12T06:18:32;99647.91;;;19.76;52.80
14383;BME280;7275;50.328;8.720;2023-05-12T06:21:04;99656.22;;;19.84;53.02
14383;BME280;7275;50.328;8.720;2023-05-12T06:23:32;99660.06;;;19.92;52.76
14383;BME280;7275;50.328;8.720;2023-05-12T06:26:00;99662.25;;;19.99;52.66
14383;BME280;7275;50.328;8.720;2023-05-12T06:28:27;99664.38;;;20.06;52.74
14383;BME280;7275;50.328;8.720;2023-05-12T06:30:54;99663.03;;;20.12;52.59
14383;BME280;7275;50.328;8.720;2023-05-12T06:33:22;99668.69;;;20.20;52.52
14383;BME280;7275;50.328;8.720;2023-05-12T06:35:50;99667.41;;;20.25;52.52
14383;BME280;7275;50.328;8.720;2023-05-12T06:38:19;99664.22;;;20.31;52.58
14383;BME280;7275;50.328;8.720;2023-05-12T06:40:46;99664.72;;;20.36;52.38
14383;BME280;7275;50.328;8.720;2023-05-12T06:43:14;99670.47;;;20.43;52.41
14383;BME280;7275;50.328;8.720;2023-05-12T06:45:42;99669.03;;;20.50;52.22
14383;BME280;7275;50.328;8.720;2023-05-12T06:48:09;99670.38;;;20.55;52.08
14383;BME280;7275;50.328;8.720;2023-05-12T06:50:37;99667.19;;;20.61;52.10
14383;BME280;7275;50.328;8.720;2023-05-12T06:53:05;99673.66;;;20.70;52.08
14383;BME280;7275;50.328;8.720;2023-05-12T06:55:34;99674.91;;;20.77;51.90
14383;BME280;7275;50.328;8.720;2023-05-12T06:58:02;99674.41;;;20.83;51.88
14383;BME280;7275;50.328;8.720;2023-05-12T07:00:29;99678.19;;;20.92;51.94
14383;BME280;7275;50.328;8.720;2023-05-12T07:02:57;99681.25;;;20.98;51.87
14383;BME280;7275;50.328;8.720;2023-05-12T07:05:25;99669.38;;;21.01;51.75
14383;BME280;7275;50.328;8.720;2023-05-12T07:07:53;99674.75;;;21.01;51.69
14383;BME280;7275;50.328;8.720;2023-05-12T07:10:20;99681.66;;;21.05;51.62
14383;BME280;7275;50.328;8.720;2023-05-12T07:12:49;99680.53;;;21.07;51.50
14383;BME280;7275;50.328;8.720;2023-05-12T07:15:16;99687.50;;;21.10;51.37
14383;BME280;7275;50.328;8.720;2023-05-12T07:17:45;99685.69;;;21.10;51.51
14383;BME280;7275;50.328;8.720;2023-05-12T07:20:12;99680.53;;;21.07;51.19
14383;BME280;7275;50.328;8.720;2023-05-12T07:22:40;99685.06;;;21.07;51.26
14383;BME280;7275;50.328;8.720;2023-05-12T07:25:08;99686.16;;;21.04;51.11
14383;BME280;7275;50.328;8.720;2023-05-12T07:27:35;99684.53;;;21.02;51.24
14383;BME280;7275;50.328;8.720;2023-05-12T07:30:05;99687.38;;;21.00;51.27
14383;BME280;7275;50.328;8.720;2023-05-12T07:32:33;99688.31;;;20.99;51.06
14383;BME280;7275;50.328;8.720;2023-05-12T07:35:01;99693.69;;;20.99;51.10
14383;BME280;7275;50.328;8.720;2023-05-12T07:37:30;99682.09;;;20.99;51.12
14383;BME280;7275;50.328;8.720;2023-05-12T07:39:58;99690.88;;;21.01;51.19
14383;BME280;7275;50.328;8.720;2023-05-12T07:42:25;99689.81;;;21.03;51.30
14383;BME280;7275;50.328;8.720;2023-05-12T07:44:53;99696.66;;;21.07;51.00
14383;BME280;7275;50.328;8.720;2023-05-12T07:47:21;99682.84;;;21.12;51.38
14383;BME280;7275;50.328;8.720;2023-05-12T07:49:49;99684.94;;;21.19;51.14
14383;BME280;7275;50.328;8.720;2023-05-12T07:52:16;99681.63;;;21.27;51.14
14383;BME280;7275;50.328;8.720;2023-05-12T07:54:44;99680.00;;;21.35;50.66
14383;BME280;7275;50.328;8.720;2023-05-12T07:57:12;99684.03;;;21.41;50.78
14383;BME280;7275;50.328;8.720;2023-05-12T07:59:39;99684.38;;;21.47;50.90
14383;BME280;7275;50.328;8.720;2023-05-12T08:02:08;99689.84;;;21.57;50.74
14383;BME280;7275;50.328;8.720;2023-05-12T08:04:36;99670.53;;;21.63;50.45
14383;BME280;7275;50.328;8.720;2023-05-12T08:07:04;99671.25;;;21.65;50.11
14383;BME280;7275;50.328;8.720;2023-05-12T08:09:31;99685.31;;;21.69;50.48
14383;BME280;7275;50.328;8.720;2023-05-12T08:11:59;99682.47;;;21.70;50.48
14383;BME280;7275;50.328;8.720;2023-05-12T08:14:26;99689.22;;;21.76;50.92
14383;BME280;7275;50.328;8.720;2023-05-12T08:16:54;99690.53;;;21.81;50.49
14383;BME280;7275;50.328;8.720;2023-05-12T08:19:21;99689.91;;;21.89;50.16
14383;BME280;7275;50.328;8.720;2023-05-12T08:24:18;99689.69;;;22.12;50.26
14383;BME280;7275;50.328;8.720;2023-05-12T08:26:47;99680.41;;;22.26;50.07
14383;BME280;7275;50.328;8.720;2023-05-12T08:29:14;99677.09;;;22.34;49.81
14383;BME280;7275;50.328;8.720;2023-05-12T08:31:42;99678.38;;;22.39;49.75
14383;BME280;7275;50.328;8.720;2023-05-12T08:34:09;99679.69;;;22.45;50.10
14383;BME280;7275;50.328;8.720;2023-05-12T08:36:37;99676.91;;;22.56;49.90
14383;BME280;7275;50.328;8.720;2023-05-12T08:39:06;99680.94;;;22.61;49.97
14383;BME280;7275;50.328;8.720;2023-05-12T08:41:41;99682.13;;;22.68;50.01
14383;BME280;7275;50.328;8.720;2023-05-12T08:44:10;99675.22;;;22.75;49.79
14383;BME280;7275;50.328;8.720;2023-05-12T08:46:38;99678.81;;;22.85;49.59
14383;BME280;7275;50.328;8.720;2023-05-12T08:49:09;99674.16;;;22.97;49.53
14383;BME280;7275;50.328;8.720;2023-05-12T08:51:42;99675.66;;;23.11;49.25
14383;BME280;7275;50.328;8.720;2023-05-12T08:54:17;99670.03;;;23.23;49.34
14383;BME280;7275;50.328;8.720;2023-05-12T08:56:49;99665.25;;;23.36;49.11
14383;BME280;7275;50.328;8.720;2023-05-12T08:59:22;99667.81;;;23.47;48.74
14383;BME280;7275;50.328;8.720;2023-05-12T09:01:50;99660.47;;;23.59;48.81
14383;BME280;7275;50.328;8.720;2023-05-12T09:04:17;99661.34;;;23.69;48.67
14383;BME280;7275;50.328;8.720;2023-05-12T09:06:46;99666.72;;;23.78;48.48
14383;BME280;7275;50.328;8.720;2023-05-12T09:09:17;99660.91;;;23.83;48.46
14383;BME280;7275;50.328;8.720;2023-05-12T09:11:47;99671.84;;;23.91;48.24
14383;BME280;7275;50.328;8.720;2023-05-12T09:14:17;99676.56;;;23.99;48.34
14383;BME280;7275;50.328;8.720;2023-05-12T09:16:50;99668.00;;;24.03;48.33
14383;BME280;7275;50.328;8.720;2023-05-12T09:19:26;99666.19;;;24.23;48.04
14383;BME280;7275;50.328;8.720;2023-05-12T09:21:54;99673.28;;;24.33;48.19
14383;BME280;7275;50.328;8.720;2023-05-12T09:24:34;99667.28;;;24.39;47.85
14383;BME280;7275;50.328;8.720;2023-05-12T09:27:02;99672.09;;;24.45;47.80
14383;BME280;7275;50.328;8.720;2023-05-12T09:29:30;99661.72;;;24.50;47.96
14383;BME280;7275;50.328;8.720;2023-05-12T09:32:10;99672.50;;;24.60;47.77
14383;BME280;7275;50.328;8.720;2023-05-12T09:34:38;99670.22;;;24.65;47.35
14383;BME280;7275;50.328;8.720;2023-05-12T09:37:06;99668.66;;;24.63;47.28
14383;BME280;7275;50.328;8.720;2023-05-12T09:39:35;99666.66;;;24.65;47.44
14383;BME280;7275;50.328;8.720;2023-05-12T09:42:09;99663.38;;;24.71;47.29
14383;BME280;7275;50.328;8.720;2023-05-12T09:44:37;99672.31;;;24.90;47.38
14383;BME280;7275;50.328;8.720;2023-05-12T09:47:06;99673.06;;;25.10;47.42
14383;BME280;7275;50.328;8.720;2023-05-12T09:49:35;99670.69;;;25.24;47.32
14383;BME280;7275;50.328;8.720;2023-05-12T09:52:03;99670.34;;;25.37;47.00
14383;BME280;7275;50.328;8.720;2023-05-12T09:54:31;99668.47;;;25.47;46.52
14383;BME280;7275;50.328;8.720;2023-05-12T09:57:02;99675.22;;;25.61;46.40
14383;BME280;7275;50.328;8.720;2023-05-12T09:59:32;99671.75;;;25.68;46.28
14383;BME280;7275;50.328;8.720;2023-05-12T10:02:03;99674.16;;;25.71;46.19
14383;BME280;7275;50.328;8.720;2023-05-12T10:04:36;99662.69;;;25.77;46.18
14383;BME280;7275;50.328;8.720;2023-05-12T10:07:05;99658.50;;;25.83;45.92
14383;BME280;7275;50.328;8.720;2023-05-12T10:09:36;99651.41;;;25.82;45.81
14383;BME280;7275;50.328;8.720;2023-05-12T10:12:07;99660.53;;;25.81;46.00
14383;BME280;7275;50.328;8.720;2023-05-12T10:14:36;99672.84;;;25.75;45.76
14383;BME280;7275;50.328;8.720;2023-05-12T10:17:04;99675.22;;;25.61;45.78
14383;BME280;7275;50.328;8.720;2023-05-12T10:19:34;99678.19;;;25.40;45.58
14383;BME280;7275;50.328;8.720;2023-05-12T10:22:02;99682.13;;;25.18;45.63
14383;BME280;7275;50.328;8.720;2023-05-12T10:24:33;99679.66;;;24.98;45.90
14383;BME280;7275;50.328;8.720;2023-05-12T10:27:02;99674.59;;;24.85;46.05
14383;BME280;7275;50.328;8.720;2023-05-12T10:29:33;99677.88;;;24.79;46.22
14383;BME280;7275;50.328;8.720;2023-05-12T10:32:01;99679.34;;;24.74;46.45
14383;BME280;7275;50.328;8.720;2023-05-12T10:34:29;99685.16;;;24.69;46.55
14383;BME280;7275;50.328;8.720;2023-05-12T10:36:59;99680.47;;;24.61;46.42
14383;BME280;7275;50.328;8.720;2023-05-12T10:39:29;99680.34;;;24.53;46.66
14383;BME280;7275;50.328;8.720;2023-05-12T10:42:03;99681.19;;;24.54;46.77
14383;BME280;7275;50.328;8.720;2023-05-12T10:44:33;99678.50;;;24.64;47.11
14383;BME280;7275;50.328;8.720;2023-05-12T10:47:01;99671.94;;;24.76;47.24
14383;BME280;7275;50.328;8.720;2023-05-12T10:49:32;99664.63;;;24.86;47.14
14383;BME280;7275;50.328;8.720;2023-05-12T10:52:02;99664.44;;;24.97;47.10
14383;BME280;7275;50.328;8.720;2023-05-12T10:54:36;99668.34;;;25.12;47.26
14383;BME280;7275;50.328;8.720;2023-05-12T10:57:11;99668.41;;;25.29;47.13
14383;BME280;7275;50.328;8.720;2023-05-12T10:59:49;99665.63;;;25.49;47.42
14383;BME280;7275;50.328;8.720;2023-05-12T11:02:22;99664.94;;;25.64;47.06
14383;BME280;7275;50.328;8.720;2023-05-12T11:04:55;99665.25;;;25.79;46.82
14383;BME280;7275;50.328;8.720;2023-05-12T11:07:24;99669.13;;;25.94;46.95
14383;BME280;7275;50.328;8.720;2023-05-12T11:09:54;99658.47;;;26.10;46.67
14383;BME280;7275;50.328;8.720;2023-05-12T11:12:27;99669.13;;;26.29;46.57
14383;BME280;7275;50.328;8.720;2023-05-12T11:14:59;99674.66;;;26.45;46.36
14383;BME280;7275;50.328;8.720;2023-05-12T11:17:28;99670.69;;;26.57;46.29
14383;BME280;7275;50.328;8.720;2023-05-12T11:19:55;99673.81;;;26.70;45.89
14383;BME280;7275;50.328;8.720;2023-05-12T11:22:23;99677.47;;;26.79;45.71
14383;BME280;7275;50.328;8.720;2023-05-12T11:24:51;99683.28;;;26.84;45.30
14383;BME280;7275;50.328;8.720;2023-05-12T11:27:20;99685.50;;;26.88;45.11
14383;BME280;7275;50.328;8.720;2023-05-12T11:29:55;99690.06;;;26.88;45.16
14383;BME280;7275;50.328;8.720;2023-05-12T11:32:24;99685.13;;;26.83;44.63
14383;BME280;7275;50.328;8.720;2023-05-12T11:34:52;99691.38;;;26.76;44.44
14383;BME280;7275;50.328;8.720;2023-05-12T11:37:21;99692.63;;;26.64;44.10
14383;BME280;7275;50.328;8.720;2023-05-12T11:39:48;99683.34;;;26.49;44.19
14383;BME280;7275;50.328;8.720;2023-05-12T11:42:18;99687.84;;;26.40;44.55
14383;BME280;7275;50.328;8.720;2023-05-12T11:44:49;99689.34;;;26.35;44.12
14383;BME280;7275;50.328;8.720;2023-05-12T11:47:18;99694.53;;;26.28;44.10
14383;BME280;7275;50.328;8.720;2023-05-12T11:49:48;99686.19;;;26.22;44.04
14383;BME280;7275;50.328;8.720;2023-05-12T11:52:17;99683.25;;;26.15;43.71
14383;BME280;7275;50.328;8.720;2023-05-12T11:54:48;99690.72;;;26.03;43.43
14383;BME280;7275;50.328;8.720;2023-05-12T11:57:24;99693.84;;;25.91;43.64
14383;BME280;7275;50.328;8.720;2023-05-12T11:59:55;99693.28;;;25.87;43.60
14383;BME280;7275;50.328;8.720;2023-05-12T12:02:24;99689.34;;;25.82;43.37
14383;BME280;7275;50.328;8.720;2023-05-12T12:04:53;99690.50;;;25.79;43.41
14383;BME280;7275;50.328;8.720;2023-05-12T12:07:27;99699.06;;;25.75;43.37
14383;BME280;7275;50.328;8.720;2023-05-12T12:09:55;99695.50;;;25.74;43.38
14383;BME280;7275;50.328;8.720;2023-05-12T12:12:23;99697.22;;;25.75;43.15
14383;BME280;7275;50.328;8.720;2023-05-12T12:14:50;99700.91;;;25.74;43.27
14383;BME280;7275;50.328;8.720;2023-05-12T12:17:18;99699.22;;;25.73;43.07
14383;BME280;7275;50.328;8.720;2023-05-12T12:19:50;99698.94;;;25.76;43.07
14383;BME280;7275;50.328;8.720;2023-05-12T12:22:19;99705.75;;;25.80;43.39
14383;BME280;7275;50.328;8.720;2023-05-12T12:24:47;99698.16;;;25.84;42.89
14383;BME280;7275;50.328;8.720;2023-05-12T12:27:14;99704.19;;;25.78;42.87
14383;BME280;7275;50.328;8.720;2023-05-12T12:29:42;99696.81;;;25.70;42.75
14383;BME280;7275;50.328;8.720;2023-05-12T12:32:09;99707.56;;;25.62;42.83
14383;BME280;7275;50.328;8.720;2023-05-12T12:34:37;99711.91;;;25.55;42.89
14383;BME280;7275;50.328;8.720;2023-05-12T12:37:04;99721.47;;;25.50;42.72
14383;BME280;7275;50.328;8.720;2023-05-12T12:39:34;99713.94;;;25.44;42.55
14383;BME280;7275;50.328;8.720;2023-05-12T12:42:02;99712.38;;;25.41;42.96
14383;BME280;7275;50.328;8.720;2023-05-12T12:44:29;99714.81;;;25.44;43.23
14383;BME280;7275;50.328;8.720;2023-05-12T12:46:57;99717.94;;;25.49;43.08
14383;BME280;7275;50.328;8.720;2023-05-12T12:49:24;99711.03;;;25.55;42.82
14383;BME280;7275;50.328;8.720;2023-05-12T12:51:52;99717.16;;;25.57;42.83
14383;BME280;7275;50.328;8.720;2023-05-12T12:54:20;99704.47;;;25.57;42.23
14383;BME280;7275;50.328;8.720;2023-05-12T12:56:49;99705.31;;;25.58;42.19
14383;BME280;7275;50.328;8.720;2023-05-12T12:59:17;99708.16;;;25.56;42.39
14383;BME280;7275;50.328;8.720;2023-05-12T13:01:44;99713.75;;;25.55;41.85
14383;BME280;7275;50.328;8.720;2023-05-12T13:04:12;99701.34;;;25.52;41.99
14383;BME280;7275;50.328;8.720;2023-05-12T13:06:39;99701.69;;;25.49;41.88
14383;BME280;7275;50.328;8.720;2023-05-12T13:09:07;99699.25;;;25.46;41.57
14383;BME280;7275;50.328;8.720;2023-05-12T13:11:34;99704.66;;;25.46;41.44
14383;BME280;7275;50.328;8.720;2023-05-12T13:14:03;99694.69;;;25.47;41.63
14383;BME280;7275;50.328;8.720;2023-05-12T13:16:31;99698.50;;;25.54;41.54
14383;BME280;7275;50.328;8.720;2023-05-12T13:18:59;99695.75;;;25.63;41.22